sensor_id;sensor_type;location;lat;lon;timestamp;P1;durP1;ratioP1;P2;durP2;ratioP2
59673;SDS011;45544;53.358;-1.488;2022-08-23T00:01:50;0.80;;;0.60;;
59673;SDS011;45544;53.358;-1.488;2022-08-23T00:04:17;0.50;;;0.50;;
59673;SDS011;45544;53.358;-1.488;2022-08-23T00:06:44;0.90;;;0.77;;
59673;SDS011;45544;53.358;-1.488;2022-08-23T00:09:11;0.40;;;0.40;;
59673;SDS011;45544;53.358;-1.488;2022-08-23T00:11:48;0.50;;;0.50;;
59673;SDS011;45544;53.358;-1.488;2022-08-23T00:14:23;0.50;;;0.50;;
59673;SDS011;45544;53.358;-1.488;2022-08-23T00:16:49;0.50;;;0.50;;
59673;SDS011;45544;53.358;-1.488;2022-08-23T00:19:16;0.47;;;0.47;;
59673;SDS011;45544;53.358;-1.488;2022-08-23T00:21:42;0.57;;;0.57;;
59673;SDS011;45544;53.358;-1.488;2022-08-23T00:24:09;0.50;;;0.50;;
59673;SDS011;45544;53.358;-1.488;2022-08-23T00:26:56;0.70;;;0.70;;
59673;SDS011;45544;53.358;-1.488;2022-08-23T00:29:33;0.40;;;0.40;;
59673;SDS011;45544;53.358;-1.488;2022-08-23T00:32:00;0.47;;;0.47;;
59673;SDS011;45544;53.358;-1.488;2022-08-23T00:34:26;0.68;;;0.55;;
59673;SDS011;45544;53.358;-1.488;2022-08-23T00:36:52;0.60;;;0.50;;
59673;SDS011;45544;53.358;-1.488;2022-08-23T00:39:19;0.40;;;0.40;;
59673;SDS011;45544;53.358;-1.488;2022-08-23T00:41:45;0.60;;;0.60;;
59673;SDS011;45544;53.358;-1.488;2022-08-23T00:44:23;0.60;;;0.60;;
59673;SDS011;45544;53.358;-1.488;2022-08-23T00:47:09;0.52;;;0.52;;
59673;SDS011;45544;53.358;-1.488;2022-08-23T00:52:44;0.32;;;0.32;;
59673;SDS011;45544;53.358;-1.488;2022-08-23T00:55:12;0.45;;;0.45;;
59673;SDS011;45544;53.358;-1.488;2022-08-23T00:57:40;0.43;;;0.43;;
59673;SDS011;45544;53.358;-1.488;2022-08-23T01:00:07;0.40;;;0.40;;
59673;SDS011;45544;53.358;-1.488;2022-08-23T01:02:33;0.40;;;0.40;;
59673;SDS011;45544;53.358;-1.488;2022-08-23T01:05:00;0.40;;;0.40;;
59673;SDS011;45544;53.358;-1.488;2022-08-23T01:09:53;0.60;;;0.60;;
59673;SDS011;45544;53.358;-1.488;2022-08-23T01:12:23;0.95;;;0.50;;
59673;SDS011;45544;53.358;-1.488;2022-08-23T01:17:47;0.47;;;0.47;;
59673;SDS011;45544;53.358;-1.488;2022-08-23T01:20:16;0.75;;;0.60;;
59673;SDS011;45544;53.358;-1.488;2022-08-23T01:22:46;0.40;;;0.38;;
59673;SDS011;45544;53.358;-1.488;2022-08-23T01:25:15;0.40;;;0.40;;
59673;SDS011;45544;53.358;-1.488;2022-08-23T01:27:42;0.60;;;0.60;;
59673;SDS011;45544;53.358;-1.488;2022-08-23T01:30:09;0.40;;;0.40;;
59673;SDS011;45544;53.358;-1.488;2022-08-23T01:32:37;0.40;;;0.40;;
59673;SDS011;45544;53.358;-1.488;2022-08-23T01:35:06;0.55;;;0.30;;
59673;SDS011;45544;53.358;-1.488;2022-08-23T01:37:32;0.47;;;0.47;;
59673;SDS011;45544;53.358;-1.488;2022-08-23T01:39:58;0.57;;;0.57;;
59673;SDS011;45544;53.358;-1.488;2022-08-23T01:42:24;0.60;;;0.60;;
59673;SDS011;45544;53.358;-1.488;2022-08-23T01:44:51;0.60;;;0.60;;
59673;SDS011;45544;53.358;-1.488;2022-08-23T01:47:17;0.70;;;0.50;;
59673;SDS011;45544;53.358;-1.488;2022-08-23T01:49:43;0.50;;;0.50;;
59673;SDS011;45544;53.358;-1.488;2022-08-23T01:52:09;0.70;;;0.60;;
59673;SDS011;45544;53.358;-1.488;2022-08-23T01:54:35;0.50;;;0.50;;
59673;SDS011;45544;53.358;-1.488;2022-08-23T01:57:01;0.40;;;0.40;;
59673;SDS011;45544;53.358;-1.488;2022-08-23T01:59:29;0.50;;;0.50;;
59673;SDS011;45544;53.358;-1.488;2022-08-23T02:01:56;0.45;;;0.45;;
59673;SDS011;45544;53.358;-1.488;2022-08-23T02:04:22;0.60;;;0.60;;
59673;SDS011;45544;53.358;-1.488;2022-08-23T02:06:49;0.43;;;0.43;;
59673;SDS011;45544;53.358;-1.488;2022-08-23T02:09:15;0.38;;;0.38;;
59673;SDS011;45544;53.358;-1.488;2022-08-23T02:11:41;0.70;;;0.70;;
59673;SDS011;45544;53.358;-1.488;2022-08-23T02:14:09;0.60;;;0.60;;
59673;SDS011;45544;53.358;-1.488;2022-08-23T02:16:36;1.27;;;0.40;;
59673;SDS011;45544;53.358;-1.488;2022-08-23T02:19:03;0.73;;;0.70;;
59673;SDS011;45544;53.358;-1.488;2022-08-23T02:21:29;0.45;;;0.45;;
59673;SDS011;45544;53.358;-1.488;2022-08-23T02:23:59;0.80;;;0.80;;
59673;SDS011;45544;53.358;-1.488;2022-08-23T02:26:25;0.50;;;0.50;;
59673;SDS011;45544;53.358;-1.488;2022-08-23T02:28:51;0.55;;;0.55;;
59673;SDS011;45544;53.358;-1.488;2022-08-23T02:31:18;0.60;;;0.60;;
59673;SDS011;45544;53.358;-1.488;2022-08-23T02:33:44;0.63;;;0.63;;
59673;SDS011;45544;53.358;-1.488;2022-08-23T02:36:10;0.38;;;0.35;;
59673;SDS011;45544;53.358;-1.488;2022-08-23T02:38:37;0.57;;;0.57;;
59673;SDS011;45544;53.358;-1.488;2022-08-23T02:41:03;0.68;;;0.68;;
59673;SDS011;45544;53.358;-1.488;2022-08-23T02:43:29;0.50;;;0.50;;
59673;SDS011;45544;53.358;-1.488;2022-08-23T02:45:55;0.70;;;0.70;;
59673;SDS011;45544;53.358;-1.488;2022-08-23T02:48:21;0.80;;;0.60;;
59673;SDS011;45544;53.358;-1.488;2022-08-23T02:50:47;1.05;;;0.65;;
59673;SDS011;45544;53.358;-1.488;2022-08-23T02:53:14;0.60;;;0.60;;
59673;SDS011;45544;53.358;-1.488;2022-08-23T02:55:44;0.73;;;0.65;;
59673;SDS011;45544;53.358;-1.488;2022-08-23T02:58:10;0.50;;;0.50;;
59673;SDS011;45544;53.358;-1.488;2022-08-23T03:00:36;0.50;;;0.50;;
59673;SDS011;45544;53.358;-1.488;2022-08-23T03:03:03;1.48;;;0.40;;
59673;SDS011;45544;53.358;-1.488;2022-08-23T03:05:29;0.60;;;0.60;;
59673;SDS011;45544;53.358;-1.488;2022-08-23T03:07:56;0.47;;;0.47;;
59673;SDS011;45544;53.358;-1.488;2022-08-23T03:10:22;0.60;;;0.60;;
59673;SDS011;45544;53.358;-1.488;2022-08-23T03:12:48;0.50;;;0.50;;
59673;SDS011;45544;53.358;-1.488;2022-08-23T03:15:14;0.40;;;0.40;;
59673;SDS011;45544;53.358;-1.488;2022-08-23T03:17:40;0.60;;;0.60;;
59673;SDS011;45544;53.358;-1.488;2022-08-23T03:20:07;0.55;;;0.55;;
59673;SDS011;45544;53.358;-1.488;2022-08-23T03:22:33;0.55;;;0.55;;
59673;SDS011;45544;53.358;-1.488;2022-08-23T03:24:59;0.52;;;0.52;;
59673;SDS011;45544;53.358;-1.488;2022-08-23T03:27:26;0.55;;;0.55;;
59673;SDS011;45544;53.358;-1.488;2022-08-23T03:29:52;1.48;;;0.82;;
59673;SDS011;45544;53.358;-1.488;2022-08-23T03:32:18;0.70;;;0.68;;
59673;SDS011;45544;53.358;-1.488;2022-08-23T03:34:44;0.98;;;0.50;;
59673;SDS011;45544;53.358;-1.488;2022-08-23T03:37:10;0.57;;;0.57;;
59673;SDS011;45544;53.358;-1.488;2022-08-23T03:39:36;0.60;;;0.60;;
59673;SDS011;45544;53.358;-1.488;2022-08-23T03:42:02;0.65;;;0.65;;
59673;SDS011;45544;53.358;-1.488;2022-08-23T03:44:28;0.47;;;0.47;;
59673;SDS011;45544;53.358;-1.488;2022-08-23T03:46:54;0.77;;;0.55;;
59673;SDS011;45544;53.358;-1.488;2022-08-23T03:49:20;1.98;;;0.70;;
59673;SDS011;45544;53.358;-1.488;2022-08-23T03:51:47;1.40;;;0.70;;
59673;SDS011;45544;53.358;-1.488;2022-08-23T03:54:13;0.60;;;0.60;;
59673;SDS011;45544;53.358;-1.488;2022-08-23T03:56:48;0.50;;;0.50;;
59673;SDS011;45544;53.358;-1.488;2022-08-23T03:59:14;1.45;;;1.05;;
59673;SDS011;45544;53.358;-1.488;2022-08-23T04:01:40;0.77;;;0.77;;
59673;SDS011;45544;53.358;-1.488;2022-08-23T04:04:08;0.60;;;0.60;;
59673;SDS011;45544;53.358;-1.488;2022-08-23T04:06:34;0.70;;;0.70;;
59673;SDS011;45544;53.358;-1.488;2022-08-23T04:09:00;0.60;;;0.60;;
59673;SDS011;45544;53.358;-1.488;2022-08-23T04:11:27;0.60;;;0.60;;
59673;SDS011;45544;53.358;-1.488;2022-08-23T04:13:53;0.65;;;0.65;;
59673;SDS011;45544;53.358;-1.488;2022-08-23T04:16:20;0.43;;;0.43;;
59673;SDS011;45544;53.358;-1.488;2022-08-23T04:18:46;0.80;;;0.80;;
59673;SDS011;45544;53.358;-1.488;2022-08-23T04:21:13;1.75;;;1.05;;
59673;SDS011;45544;53.358;-1.488;2022-08-23T04:23:40;0.68;;;0.68;;
59673;SDS011;45544;53.358;-1.488;2022-08-23T04:26:07;0.90;;;0.90;;
59673;SDS011;45544;53.358;-1.488;2022-08-23T04:28:33;0.55;;;0.55;;
59673;SDS011;45544;53.358;-1.488;2022-08-23T04:31:00;0.70;;;0.70;;
59673;SDS011;45544;53.358;-1.488;2022-08-23T04:33:26;2.25;;;0.80;;
59673;SDS011;45544;53.358;-1.488;2022-08-23T04:35:52;0.90;;;0.90;;
59673;SDS011;45544;53.358;-1.488;2022-08-23T04:38:18;0.90;;;0.77;;
59673;SDS011;45544;53.358;-1.488;2022-08-23T04:40:44;0.70;;;0.70;;
59673;SDS011;45544;53.358;-1.488;2022-08-23T04:43:40;0.80;;;0.80;;
59673;SDS011;45544;53.358;-1.488;2022-08-23T04:46:09;0.70;;;0.70;;
59673;SDS011;45544;53.358;-1.488;2022-08-23T04:48:38;0.80;;;0.80;;
59673;SDS011;45544;53.358;-1.488;2022-08-23T04:51:04;0.60;;;0.60;;
59673;SDS011;45544;53.358;-1.488;2022-08-23T04:53:30;0.68;;;0.68;;
59673;SDS011;45544;53.358;-1.488;2022-08-23T04:55:59;0.90;;;0.90;;
59673;SDS011;45544;53.358;-1.488;2022-08-23T04:58:26;0.63;;;0.63;;
59673;SDS011;45544;53.358;-1.488;2022-08-23T05:00:52;0.85;;;0.85;;
59673;SDS011;45544;53.358;-1.488;2022-08-23T05:03:19;0.65;;;0.65;;
59673;SDS011;45544;53.358;-1.488;2022-08-23T05:05:45;0.70;;;0.70;;
59673;SDS011;45544;53.358;-1.488;2022-08-23T05:08:11;1.35;;;1.25;;
59673;SDS011;45544;53.358;-1.488;2022-08-23T05:10:37;0.93;;;0.93;;
59673;SDS011;45544;53.358;-1.488;2022-08-23T05:13:03;0.60;;;0.60;;
59673;SDS011;45544;53.358;-1.488;2022-08-23T05:15:29;1.80;;;0.90;;
59673;SDS011;45544;53.358;-1.488;2022-08-23T05:17:55;0.80;;;0.80;;
59673;SDS011;45544;53.358;-1.488;2022-08-23T05:20:21;0.50;;;0.50;;
59673;SDS011;45544;53.358;-1.488;2022-08-23T05:22:48;0.68;;;0.68;;
59673;SDS011;45544;53.358;-1.488;2022-08-23T05:25:14;2.53;;;0.60;;
59673;SDS011;45544;53.358;-1.488;2022-08-23T05:27:40;0.77;;;0.77;;
59673;SDS011;45544;53.358;-1.488;2022-08-23T05:30:07;0.98;;;0.98;;
59673;SDS011;45544;53.358;-1.488;2022-08-23T05:32:33;0.70;;;0.70;;
59673;SDS011;45544;53.358;-1.488;2022-08-23T05:34:59;0.90;;;0.90;;
59673;SDS011;45544;53.358;-1.488;2022-08-23T05:37:25;1.05;;;1.05;;
59673;SDS011;45544;53.358;-1.488;2022-08-23T05:39:51;0.80;;;0.80;;
59673;SDS011;45544;53.358;-1.488;2022-08-23T05:42:17;1.48;;;1.38;;
59673;SDS011;45544;53.358;-1.488;2022-08-23T05:44:44;0.70;;;0.70;;
59673;SDS011;45544;53.358;-1.488;2022-08-23T05:47:11;0.98;;;0.93;;
59673;SDS011;45544;53.358;-1.488;2022-08-23T05:49:38;0.98;;;0.95;;
59673;SDS011;45544;53.358;-1.488;2022-08-23T05:52:08;0.85;;;0.85;;
59673;SDS011;45544;53.358;-1.488;2022-08-23T05:54:35;0.77;;;0.70;;
59673;SDS011;45544;53.358;-1.488;2022-08-23T05:57:02;0.75;;;0.75;;
59673;SDS011;45544;53.358;-1.488;2022-08-23T05:59:28;0.70;;;0.70;;
59673;SDS011;45544;53.358;-1.488;2022-08-23T06:01:54;1.30;;;1.00;;
59673;SDS011;45544;53.358;-1.488;2022-08-23T06:04:22;0.80;;;0.80;;
59673;SDS011;45544;53.358;-1.488;2022-08-23T06:06:48;0.70;;;0.70;;
59673;SDS011;45544;53.358;-1.488;2022-08-23T06:09:15;0.73;;;0.73;;
59673;SDS011;45544;53.358;-1.488;2022-08-23T06:11:42;0.80;;;0.80;;
59673;SDS011;45544;53.358;-1.488;2022-08-23T06:14:09;0.85;;;0.75;;
59673;SDS011;45544;53.358;-1.488;2022-08-23T06:16:38;0.73;;;0.73;;
59673;SDS011;45544;53.358;-1.488;2022-08-23T06:19:05;0.82;;;0.82;;
59673;SDS011;45544;53.358;-1.488;2022-08-23T06:21:32;0.98;;;0.90;;
59673;SDS011;45544;53.358;-1.488;2022-08-23T06:23:58;1.15;;;0.82;;
59673;SDS011;45544;53.358;-1.488;2022-08-23T06:26:27;1.33;;;0.93;;
59673;SDS011;45544;53.358;-1.488;2022-08-23T06:28:55;1.00;;;1.00;;
59673;SDS011;45544;53.358;-1.488;2022-08-23T06:31:23;1.02;;;1.00;;
59673;SDS011;45544;53.358;-1.488;2022-08-23T06:34:09;0.95;;;0.90;;
59673;SDS011;45544;53.358;-1.488;2022-08-23T06:36:36;1.10;;;1.10;;
59673;SDS011;45544;53.358;-1.488;2022-08-23T06:39:05;1.02;;;1.00;;
59673;SDS011;45544;53.358;-1.488;2022-08-23T06:41:32;0.77;;;0.77;;
59673;SDS011;45544;53.358;-1.488;2022-08-23T06:43:58;2.80;;;1.10;;
59673;SDS011;45544;53.358;-1.488;2022-08-23T06:46:25;1.52;;;1.42;;
59673;SDS011;45544;53.358;-1.488;2022-08-23T06:48:52;1.35;;;1.10;;
59673;SDS011;45544;53.358;-1.488;2022-08-23T06:54:14;1.35;;;1.25;;
59673;SDS011;45544;53.358;-1.488;2022-08-23T06:56:41;1.38;;;1.27;;
59673;SDS011;45544;53.358;-1.488;2022-08-23T06:59:08;1.20;;;0.93;;
59673;SDS011;45544;53.358;-1.488;2022-08-23T07:01:50;1.42;;;1.33;;
59673;SDS011;45544;53.358;-1.488;2022-08-23T07:04:18;1.20;;;1.10;;
59673;SDS011;45544;53.358;-1.488;2022-08-23T07:06:45;1.20;;;1.10;;
59673;SDS011;45544;53.358;-1.488;2022-08-23T07:09:11;1.38;;;1.30;;
59673;SDS011;45544;53.358;-1.488;2022-08-23T07:11:37;1.60;;;1.50;;
59673;SDS011;45544;53.358;-1.488;2022-08-23T07:14:05;1.20;;;1.10;;
59673;SDS011;45544;53.358;-1.488;2022-08-23T07:16:34;1.30;;;1.20;;
59673;SDS011;45544;53.358;-1.488;2022-08-23T07:19:01;1.60;;;1.50;;
59673;SDS011;45544;53.358;-1.488;2022-08-23T07:21:28;1.48;;;1.38;;
59673;SDS011;45544;53.358;-1.488;2022-08-23T07:23:54;2.20;;;1.88;;
59673;SDS011;45544;53.358;-1.488;2022-08-23T07:26:20;1.80;;;1.70;;
59673;SDS011;45544;53.358;-1.488;2022-08-23T07:28:47;1.98;;;1.88;;
59673;SDS011;45544;53.358;-1.488;2022-08-23T07:31:15;1.98;;;1.85;;
59673;SDS011;45544;53.358;-1.488;2022-08-23T07:33:41;2.47;;;2.28;;
59673;SDS011;45544;53.358;-1.488;2022-08-23T07:36:08;1.65;;;1.55;;
59673;SDS011;45544;53.358;-1.488;2022-08-23T07:38:34;3.78;;;1.92;;
59673;SDS011;45544;53.358;-1.488;2022-08-23T07:41:01;2.28;;;2.05;;
59673;SDS011;45544;53.358;-1.488;2022-08-23T07:43:28;2.13;;;1.92;;
59673;SDS011;45544;53.358;-1.488;2022-08-23T07:45:54;2.70;;;2.33;;
59673;SDS011;45544;53.358;-1.488;2022-08-23T07:48:26;3.03;;;2.72;;
59673;SDS011;45544;53.358;-1.488;2022-08-23T07:50:53;2.55;;;2.35;;
59673;SDS011;45544;53.358;-1.488;2022-08-23T07:53:23;4.40;;;2.75;;
59673;SDS011;45544;53.358;-1.488;2022-08-23T07:55:50;2.95;;;2.42;;
59673;SDS011;45544;53.358;-1.488;2022-08-23T07:58:17;2.50;;;2.30;;
59673;SDS011;45544;53.358;-1.488;2022-08-23T08:00:43;2.50;;;2.10;;
59673;SDS011;45544;53.358;-1.488;2022-08-23T08:03:14;2.47;;;2.28;;
59673;SDS011;45544;53.358;-1.488;2022-08-23T08:05:40;2.85;;;2.58;;
59673;SDS011;45544;53.358;-1.488;2022-08-23T08:08:07;2.90;;;2.63;;
59673;SDS011;45544;53.358;-1.488;2022-08-23T08:10:37;3.22;;;2.92;;
59673;SDS011;45544;53.358;-1.488;2022-08-23T08:13:04;3.35;;;2.63;;
59673;SDS011;45544;53.358;-1.488;2022-08-23T08:15:31;2.50;;;2.30;;
59673;SDS011;45544;53.358;-1.488;2022-08-23T08:17:58;2.80;;;2.50;;
59673;SDS011;45544;53.358;-1.488;2022-08-23T08:20:25;3.08;;;2.85;;
59673;SDS011;45544;53.358;-1.488;2022-08-23T08:22:52;2.65;;;2.45;;
59673;SDS011;45544;53.358;-1.488;2022-08-23T08:25:18;3.38;;;2.80;;
59673;SDS011;45544;53.358;-1.488;2022-08-23T08:27:44;2.65;;;2.42;;
59673;SDS011;45544;53.358;-1.488;2022-08-23T08:30:10;2.80;;;2.60;;
59673;SDS011;45544;53.358;-1.488;2022-08-23T08:32:37;2.95;;;2.55;;
59673;SDS011;45544;53.358;-1.488;2022-08-23T08:35:03;4.18;;;2.85;;
59673;SDS011;45544;53.358;-1.488;2022-08-23T08:37:29;3.08;;;2.67;;
59673;SDS011;45544;53.358;-1.488;2022-08-23T08:39:56;3.67;;;2.42;;
59673;SDS011;45544;53.358;-1.488;2022-08-23T08:50:06;2.45;;;2.25;;
59673;SDS011;45544;53.358;-1.488;2022-08-23T08:52:35;3.92;;;2.60;;
59673;SDS011;45544;53.358;-1.488;2022-08-23T08:55:07;2.35;;;2.15;;
59673;SDS011;45544;53.358;-1.488;2022-08-23T08:57:37;2.35;;;2.15;;
59673;SDS011;45544;53.358;-1.488;2022-08-23T09:00:12;2.40;;;2.20;;
59673;SDS011;45544;53.358;-1.488;2022-08-23T09:02:39;3.15;;;1.80;;
59673;SDS011;45544;53.358;-1.488;2022-08-23T09:05:08;2.03;;;1.83;;
59673;SDS011;45544;53.358;-1.488;2022-08-23T09:10:22;2.28;;;2.00;;
59673;SDS011;45544;53.358;-1.488;2022-08-23T09:18:09;1.63;;;1.52;;
59673;SDS011;45544;53.358;-1.488;2022-08-23T09:20:36;2.63;;;1.90;;
59673;SDS011;45544;53.358;-1.488;2022-08-23T09:23:05;1.88;;;1.77;;
59673;SDS011;45544;53.358;-1.488;2022-08-23T09:25:32;1.65;;;1.50;;
59673;SDS011;45544;53.358;-1.488;2022-08-23T09:27:59;1.88;;;1.70;;
59673;SDS011;45544;53.358;-1.488;2022-08-23T09:30:43;1.58;;;1.48;;
59673;SDS011;45544;53.358;-1.488;2022-08-23T09:33:17;4.25;;;1.50;;
59673;SDS011;45544;53.358;-1.488;2022-08-23T09:35:43;1.48;;;1.38;;
59673;SDS011;45544;53.358;-1.488;2022-08-23T09:38:26;2.15;;;1.95;;
59673;SDS011;45544;53.358;-1.488;2022-08-23T09:40:53;1.35;;;1.25;;
59673;SDS011;45544;53.358;-1.488;2022-08-23T09:43:24;2.28;;;1.20;;
59673;SDS011;45544;53.358;-1.488;2022-08-23T09:48:34;1.20;;;1.10;;
59673;SDS011;45544;53.358;-1.488;2022-08-23T09:51:04;2.00;;;1.20;;
59673;SDS011;45544;53.358;-1.488;2022-08-23T09:53:31;1.73;;;1.63;;
59673;SDS011;45544;53.358;-1.488;2022-08-23T09:56:00;1.52;;;1.42;;
59673;SDS011;45544;53.358;-1.488;2022-08-23T09:58:36;0.82;;;0.80;;
59673;SDS011;45544;53.358;-1.488;2022-08-23T10:01:11;0.93;;;0.93;;
59673;SDS011;45544;53.358;-1.488;2022-08-23T10:03:39;1.20;;;1.17;;
59673;SDS011;45544;53.358;-1.488;2022-08-23T10:06:06;2.70;;;1.08;;
59673;SDS011;45544;53.358;-1.488;2022-08-23T10:08:35;1.30;;;1.20;;
59673;SDS011;45544;53.358;-1.488;2022-08-23T10:13:27;0.65;;;0.65;;
59673;SDS011;45544;53.358;-1.488;2022-08-23T10:18:27;0.85;;;0.85;;
59673;SDS011;45544;53.358;-1.488;2022-08-23T10:26:21;0.95;;;0.95;;
59673;SDS011;45544;53.358;-1.488;2022-08-23T10:31:36;2.10;;;1.45;;
59673;SDS011;45544;53.358;-1.488;2022-08-23T10:37:09;0.75;;;0.75;;
59673;SDS011;45544;53.358;-1.488;2022-08-23T10:40:00;1.00;;;0.90;;
59673;SDS011;45544;53.358;-1.488;2022-08-23T10:45:14;0.70;;;0.70;;
59673;SDS011;45544;53.358;-1.488;2022-08-23T10:50:26;0.75;;;0.75;;
59673;SDS011;45544;53.358;-1.488;2022-08-23T10:52:54;1.05;;;0.90;;
59673;SDS011;45544;53.358;-1.488;2022-08-23T10:55:25;0.60;;;0.60;;
59673;SDS011;45544;53.358;-1.488;2022-08-23T10:58:20;0.90;;;0.90;;
59673;SDS011;45544;53.358;-1.488;2022-08-23T11:00:47;1.02;;;0.93;;
59673;SDS011;45544;53.358;-1.488;2022-08-23T11:08:43;0.85;;;0.85;;
59673;SDS011;45544;53.358;-1.488;2022-08-23T11:11:31;0.70;;;0.70;;
59673;SDS011;45544;53.358;-1.488;2022-08-23T11:13:57;0.93;;;0.90;;
59673;SDS011;45544;53.358;-1.488;2022-08-23T11:16:25;0.98;;;0.90;;
59673;SDS011;45544;53.358;-1.488;2022-08-23T11:18:53;0.90;;;0.90;;
59673;SDS011;45544;53.358;-1.488;2022-08-23T11:28:54;0.80;;;0.80;;
59673;SDS011;45544;53.358;-1.488;2022-08-23T11:31:26;0.80;;;0.80;;
59673;SDS011;45544;53.358;-1.488;2022-08-23T11:36:21;0.80;;;0.80;;
59673;SDS011;45544;53.358;-1.488;2022-08-23T11:49:28;0.93;;;0.93;;
59673;SDS011;45544;53.358;-1.488;2022-08-23T11:56:49;1.42;;;1.17;;
59673;SDS011;45544;53.358;-1.488;2022-08-23T11:59:24;1.70;;;1.60;;
59673;SDS011;45544;53.358;-1.488;2022-08-23T12:01:59;1.30;;;1.20;;
59673;SDS011;45544;53.358;-1.488;2022-08-23T12:04:46;1.50;;;1.40;;
59673;SDS011;45544;53.358;-1.488;2022-08-23T12:07:42;1.73;;;1.63;;
59673;SDS011;45544;53.358;-1.488;2022-08-23T12:10:02;2.33;;;1.52;;
59673;SDS011;45544;53.358;-1.488;2022-08-23T12:12:30;3.53;;;1.60;;
59673;SDS011;45544;53.358;-1.488;2022-08-23T12:14:58;1.60;;;1.10;;
59673;SDS011;45544;53.358;-1.488;2022-08-23T12:20:07;1.40;;;1.30;;
59673;SDS011;45544;53.358;-1.488;2022-08-23T12:25:20;1.85;;;1.52;;
59673;SDS011;45544;53.358;-1.488;2022-08-23T12:30:27;1.20;;;1.10;;
59673;SDS011;45544;53.358;-1.488;2022-08-23T12:40:42;1.20;;;1.10;;
59673;SDS011;45544;53.358;-1.488;2022-08-23T12:45:42;1.40;;;1.30;;
59673;SDS011;45544;53.358;-1.488;2022-08-23T12:48:10;1.33;;;1.23;;
59673;SDS011;45544;53.358;-1.488;2022-08-23T12:50:37;1.38;;;1.27;;
59673;SDS011;45544;53.358;-1.488;2022-08-23T12:53:08;1.88;;;1.40;;
59673;SDS011;45544;53.358;-1.488;2022-08-23T12:55:42;1.23;;;1.08;;
59673;SDS011;45544;53.358;-1.488;2022-08-23T12:58:08;1.02;;;1.00;;
59673;SDS011;45544;53.358;-1.488;2022-08-23T13:00:38;0.98;;;0.98;;
59673;SDS011;45544;53.358;-1.488;2022-08-23T13:03:27;1.70;;;1.00;;
59673;SDS011;45544;53.358;-1.488;2022-08-23T13:05:56;1.20;;;1.10;;
59673;SDS011;45544;53.358;-1.488;2022-08-23T13:08:30;1.23;;;1.13;;
59673;SDS011;45544;53.358;-1.488;2022-08-23T13:10:57;0.93;;;0.90;;
59673;SDS011;45544;53.358;-1.488;2022-08-23T13:13:24;4.32;;;1.27;;
59673;SDS011;45544;53.358;-1.488;2022-08-23T13:15:52;1.20;;;1.10;;
59673;SDS011;45544;53.358;-1.488;2022-08-23T13:18:23;1.48;;;1.38;;
59673;SDS011;45544;53.358;-1.488;2022-08-23T13:21:14;0.95;;;0.95;;
59673;SDS011;45544;53.358;-1.488;2022-08-23T13:23:35;1.08;;;0.98;;
59673;SDS011;45544;53.358;-1.488;2022-08-23T13:26:22;1.58;;;1.48;;
59673;SDS011;45544;53.358;-1.488;2022-08-23T13:29:07;1.02;;;0.95;;
59673;SDS011;45544;53.358;-1.488;2022-08-23T13:31:47;1.48;;;1.17;;
59673;SDS011;45544;53.358;-1.488;2022-08-23T13:34:29;1.15;;;1.13;;
59673;SDS011;45544;53.358;-1.488;2022-08-23T13:36:58;2.35;;;1.65;;
59673;SDS011;45544;53.358;-1.488;2022-08-23T13:39:25;1.40;;;1.30;;
59673;SDS011;45544;53.358;-1.488;2022-08-23T13:41:52;1.75;;;1.40;;
59673;SDS011;45544;53.358;-1.488;2022-08-23T13:44:18;1.27;;;1.17;;
59673;SDS011;45544;53.358;-1.488;2022-08-23T13:46:45;1.00;;;1.00;;
59673;SDS011;45544;53.358;-1.488;2022-08-23T13:49:14;2.88;;;1.88;;
59673;SDS011;45544;53.358;-1.488;2022-08-23T13:51:42;1.10;;;1.00;;
59673;SDS011;45544;53.358;-1.488;2022-08-23T13:54:10;1.60;;;1.45;;
59673;SDS011;45544;53.358;-1.488;2022-08-23T13:56:38;1.48;;;1.38;;
59673;SDS011;45544;53.358;-1.488;2022-08-23T14:01:49;1.55;;;1.45;;
59673;SDS011;45544;53.358;-1.488;2022-08-23T14:04:15;1.45;;;1.30;;
59673;SDS011;45544;53.358;-1.488;2022-08-23T14:06:42;2.38;;;1.60;;
59673;SDS011;45544;53.358;-1.488;2022-08-23T14:09:08;1.90;;;1.50;;
59673;SDS011;45544;53.358;-1.488;2022-08-23T14:11:34;1.50;;;1.40;;
59673;SDS011;45544;53.358;-1.488;2022-08-23T14:14:00;1.55;;;1.40;;
59673;SDS011;45544;53.358;-1.488;2022-08-23T14:16:30;2.50;;;1.90;;
59673;SDS011;45544;53.358;-1.488;2022-08-23T14:18:58;1.70;;;1.60;;
59673;SDS011;45544;53.358;-1.488;2022-08-23T14:21:24;1.65;;;1.55;;
59673;SDS011;45544;53.358;-1.488;2022-08-23T14:23:50;2.15;;;1.80;;
59673;SDS011;45544;53.358;-1.488;2022-08-23T14:26:17;2.80;;;1.77;;
59673;SDS011;45544;53.358;-1.488;2022-08-23T14:28:44;2.10;;;1.88;;
59673;SDS011;45544;53.358;-1.488;2022-08-23T14:31:10;2.15;;;1.98;;
59673;SDS011;45544;53.358;-1.488;2022-08-23T14:33:37;3.67;;;2.20;;
59673;SDS011;45544;53.358;-1.488;2022-08-23T14:36:03;2.60;;;1.98;;
59673;SDS011;45544;53.358;-1.488;2022-08-23T14:38:29;1.45;;;1.35;;
59673;SDS011;45544;53.358;-1.488;2022-08-23T14:40:56;2.80;;;1.80;;
59673;SDS011;45544;53.358;-1.488;2022-08-23T14:43:23;2.67;;;2.03;;
59673;SDS011;45544;53.358;-1.488;2022-08-23T14:45:49;2.45;;;1.88;;
59673;SDS011;45544;53.358;-1.488;2022-08-23T14:48:16;2.15;;;1.77;;
59673;SDS011;45544;53.358;-1.488;2022-08-23T14:50:42;4.00;;;2.20;;
59673;SDS011;45544;53.358;-1.488;2022-08-23T14:53:09;2.10;;;1.90;;
59673;SDS011;45544;53.358;-1.488;2022-08-23T14:55:36;2.20;;;1.88;;
59673;SDS011;45544;53.358;-1.488;2022-08-23T14:58:02;2.30;;;1.95;;
59673;SDS011;45544;53.358;-1.488;2022-08-23T15:00:29;1.75;;;1.65;;
59673;SDS011;45544;53.358;-1.488;2022-08-23T15:02:56;1.85;;;1.75;;
59673;SDS011;45544;53.358;-1.488;2022-08-23T15:05:22;2.17;;;1.75;;
59673;SDS011;45544;53.358;-1.488;2022-08-23T15:07:48;1.88;;;1.65;;
59673;SDS011;45544;53.358;-1.488;2022-08-23T15:10:14;1.50;;;1.40;;
59673;SDS011;45544;53.358;-1.488;2022-08-23T15:12:40;2.50;;;1.65;;
59673;SDS011;45544;53.358;-1.488;2022-08-23T15:15:08;1.95;;;1.80;;
59673;SDS011;45544;53.358;-1.488;2022-08-23T15:17:47;1.58;;;1.48;;
59673;SDS011;45544;53.358;-1.488;2022-08-23T15:20:16;1.60;;;1.50;;
59673;SDS011;45544;53.358;-1.488;2022-08-23T15:22:42;2.15;;;1.23;;
59673;SDS011;45544;53.358;-1.488;2022-08-23T15:25:08;1.35;;;1.25;;
59673;SDS011;45544;53.358;-1.488;2022-08-23T15:27:34;2.42;;;1.80;;
59673;SDS011;45544;53.358;-1.488;2022-08-23T15:30:00;1.85;;;1.73;;
59673;SDS011;45544;53.358;-1.488;2022-08-23T15:32:26;1.50;;;1.40;;
59673;SDS011;45544;53.358;-1.488;2022-08-23T15:34:53;2.05;;;1.70;;
59673;SDS011;45544;53.358;-1.488;2022-08-23T15:37:19;2.17;;;1.75;;
59673;SDS011;45544;53.358;-1.488;2022-08-23T15:39:45;2.92;;;2.00;;
59673;SDS011;45544;53.358;-1.488;2022-08-23T15:42:12;2.10;;;1.90;;
59673;SDS011;45544;53.358;-1.488;2022-08-23T15:44:38;1.70;;;1.60;;
59673;SDS011;45544;53.358;-1.488;2022-08-23T15:47:04;2.13;;;1.70;;
59673;SDS011;45544;53.358;-1.488;2022-08-23T15:49:38;2.58;;;1.63;;
59673;SDS011;45544;53.358;-1.488;2022-08-23T15:52:04;2.05;;;1.50;;
59673;SDS011;45544;53.358;-1.488;2022-08-23T15:54:30;2.22;;;1.83;;
59673;SDS011;45544;53.358;-1.488;2022-08-23T15:56:56;2.20;;;1.95;;
59673;SDS011;45544;53.358;-1.488;2022-08-23T15:59:22;2.47;;;1.98;;
59673;SDS011;45544;53.358;-1.488;2022-08-23T16:01:49;1.85;;;1.55;;
59673;SDS011;45544;53.358;-1.488;2022-08-23T16:04:15;1.48;;;1.38;;
59673;SDS011;45544;53.358;-1.488;2022-08-23T16:06:42;1.60;;;1.50;;
59673;SDS011;45544;53.358;-1.488;2022-08-23T16:09:11;1.70;;;1.60;;
59673;SDS011;45544;53.358;-1.488;2022-08-23T16:11:39;1.60;;;1.50;;
59673;SDS011;45544;53.358;-1.488;2022-08-23T16:14:05;1.92;;;1.77;;
59673;SDS011;45544;53.358;-1.488;2022-08-23T16:16:33;1.27;;;1.17;;
59673;SDS011;45544;53.358;-1.488;2022-08-23T16:18:59;1.75;;;1.55;;
59673;SDS011;45544;53.358;-1.488;2022-08-23T16:21:27;2.20;;;1.73;;
59673;SDS011;45544;53.358;-1.488;2022-08-23T16:23:53;2.38;;;2.17;;